Time;durP1;ratioP1;P1;durP2;ratioP2;P2;SDS_P1;SDS_P2;PMS_P1;PMS_P2;Temp;Humidity;BMP_temperature;BMP_pressure;BME280_temperature;BME280_humidity;BME280_pressure;Samples;Min_cycle;Max_cycle;Signal;HPM_P1;HPM_P2
2023/09/11 00:00:25;;;;;;;0.20;0.20;;;;;;;18.60;56.13;101557.03;5018228;28;20025;-87
2023/09/11 00:02:51;;;;;;;0.20;0.20;;;;;;;18.55;56.77;101570.44;5017679;28;20036;-86
2023/09/11 00:05:16;;;;;;;0.10;0.10;;;;;;;18.49;56.88;101562.16;5016775;28;20037;-86
2023/09/11 00:07:42;;;;;;;0.20;0.20;;;;;;;18.50;57.00;101569.94;5017745;28;20021;-87
2023/09/11 00:10:08;;;;;;;0.20;0.20;;;;;;;18.37;57.12;101553.31;5033406;28;20029;-86
2023/09/11 00:12:33;;;;;;;0.20;0.20;;;;;;;18.53;56.33;101561.00;5017372;28;20442;-86
2023/09/11 00:14:59;;;;;;;0.10;0.10;;;;;;;18.55;56.37;101562.56;5033261;28;20053;-86
2023/09/11 00:17:25;;;;;;;0.20;0.20;;;;;;;18.40;56.42;101539.22;5034305;28;20578;-86
2023/09/11 00:19:54;;;;;;;0.13;0.13;;;;;;;18.36;57.21;101554.28;5018065;28;20038;-87
2023/09/11 00:22:19;;;;;;;0.10;0.10;;;;;;;18.32;57.54;101558.06;5033025;28;20030;-86
2023/09/11 00:24:45;;;;;;;0.20;0.20;;;;;;;18.14;57.67;101539.16;5033838;28;20037;-86
2023/09/11 00:27:10;;;;;;;0.13;0.13;;;;;;;17.93;57.92;101525.69;5034744;28;20029;-85
2023/09/11 00:29:36;;;;;;;0.10;0.10;;;;;;;18.13;58.41;101562.81;5016506;28;20033;-86
2023/09/11 00:32:02;;;;;;;0.20;0.20;;;;;;;18.06;58.33;101565.84;5017148;28;20116;-87
2023/09/11 00:34:29;;;;;;;0.10;0.10;;;;;;;18.05;58.03;101561.53;5016311;28;20479;-86
2023/09/11 00:36:55;;;;;;;0.10;0.10;;;;;;;18.04;58.11;101557.25;5033436;28;20035;-87
2023/09/11 00:39:20;;;;;;;0.10;0.10;;;;;;;17.98;58.09;101543.72;5033923;28;20087;-86
2023/09/11 00:41:46;;;;;;;0.20;0.20;;;;;;;18.06;57.89;101557.13;5017413;28;20423;-86
2023/09/11 00:44:11;;;;;;;0.10;0.10;;;;;;;17.92;58.24;101555.44;5016532;28;20029;-87
2023/09/11 00:46:36;;;;;;;0.20;0.20;;;;;;;17.76;58.79;101544.28;5016661;28;20037;-85
2023/09/11 00:49:02;;;;;;;0.10;0.10;;;;;;;17.85;58.87;101555.94;5032822;28;20545;-87
2023/09/11 00:51:27;;;;;;;0.20;0.20;;;;;;;17.86;58.66;101555.81;5017095;28;20103;-86
2023/09/11 00:53:53;;;;;;;0.20;0.20;;;;;;;17.79;58.69;101551.91;5032521;28;20036;-87
2023/09/11 00:56:18;;;;;;;0.20;0.20;;;;;;;17.74;59.00;101551.38;5016781;28;20064;-86
2023/09/11 00:58:44;;;;;;;0.17;0.17;;;;;;;17.66;59.09;101536.13;5033928;28;20032;-86
2023/09/11 01:01:10;;;;;;;0.15;0.15;;;;;;;17.76;58.95;101565.22;5016369;28;20037;-87
2023/09/11 01:03:36;;;;;;;0.10;0.10;;;;;;;17.70;58.80;101550.75;5032570;28;20414;-87
2023/09/11 01:06:02;;;;;;;0.10;0.10;;;;;;;17.70;58.87;101556.00;5032942;28;20029;-86
2023/09/11 01:08:28;;;;;;;0.20;0.20;;;;;;;17.73;58.41;101563.63;5017091;28;20500;-86
2023/09/11 01:10:54;;;;;;;0.10;0.10;;;;;;;17.81;58.05;101555.28;5033248;28;20064;-86
2023/09/11 01:13:20;;;;;;;0.20;0.20;;;;;;;17.68;58.09;101557.81;5031813;28;20025;-85
2023/09/11 01:16:01;;;;;;;0.20;0.20;;;;;;;17.51;58.61;101552.84;5031759;28;20048;-86
2023/09/11 01:18:40;;;;;;;0.10;0.10;;;;;;;17.57;58.58;101559.44;5015433;28;20026;-86
2023/09/11 01:21:21;;;;;;;0.20;0.20;;;;;;;17.30;59.40;101552.38;5015120;28;20034;-86
2023/09/11 01:24:08;;;;;;;0.10;0.10;;;;;;;17.35;59.05;101571.25;5031677;28;20442;-86
2023/09/11 01:26:40;;;;;;;0.20;0.20;;;;;;;17.32;59.35;101574.06;5031780;28;20021;-86
2023/09/11 01:29:30;;;;;;;0.20;0.20;;;;;;;17.34;59.22;101572.19;5033183;28;20034;-85
2023/09/11 01:31:55;;;;;;;0.20;0.20;;;;;;;17.13;59.48;101558.66;5032440;28;20029;-86
2023/09/11 01:34:21;;;;;;;0.20;0.20;;;;;;;17.11;59.77;101578.00;5031202;28;20030;-86
2023/09/11 01:36:46;;;;;;;0.20;0.20;;;;;;;17.12;59.66;101558.78;5014690;28;20553;-86
2023/09/11 01:39:12;;;;;;;0.20;0.20;;;;;;;17.14;59.60;101568.19;5014793;28;20030;-85
2023/09/11 01:41:42;;;;;;;0.10;0.10;;;;;;;17.13;59.46;101560.44;5031516;28;20034;-86
2023/09/11 01:44:23;;;;;;;0.20;0.20;;;;;;;17.23;59.46;101584.25;5014406;28;20032;-86
2023/09/11 01:46:49;;;;;;;0.20;0.20;;;;;;;17.24;59.08;101584.16;5014888;28;20040;-86
2023/09/11 01:49:17;;;;;;;0.10;0.10;;;;;;;16.98;59.96;101566.59;5014640;28;20026;-86
2023/09/11 01:51:44;;;;;;;0.20;0.20;;;;;;;16.91;60.59;101566.13;5014341;28;20038;-86
2023/09/11 01:54:10;;;;;;;0.20;0.20;;;;;;;17.06;60.01;101573.03;5015106;28;20513;-87
2023/09/11 01:56:35;;;;;;;0.20;0.20;;;;;;;17.16;59.89;101581.16;5030902;28;20029;-86
2023/09/11 01:59:01;;;;;;;0.10;0.10;;;;;;;17.09;60.14;101585.91;5014188;28;20414;-86
2023/09/11 02:01:27;;;;;;;0.10;0.10;;;;;;;17.01;60.54;101574.25;5029809;28;20029;-86
2023/09/11 02:03:52;;;;;;;0.10;0.10;;;;;;;16.99;60.67;101590.03;5014664;28;20542;-85
2023/09/11 02:06:18;;;;;;;0.20;0.20;;;;;;;17.08;60.22;101579.00;5030612;28;20099;-86
2023/09/11 02:08:43;;;;;;;0.20;0.20;;;;;;;17.15;59.57;101574.25;5030851;28;20033;-85
2023/09/11 02:11:10;;;;;;;0.20;0.20;;;;;;;17.24;59.46;101586.78;5014100;28;20488;-86
2023/09/11 02:13:36;;;;;;;0.10;0.10;;;;;;;17.32;59.35;101591.53;5031854;28;20038;-86
2023/09/11 02:16:01;;;;;;;0.30;0.20;;;;;;;17.11;59.22;101575.41;5030826;28;20049;-86
2023/09/11 02:18:27;;;;;;;0.20;0.20;;;;;;;17.18;59.11;101589.75;5030956;28;20033;-86
2023/09/11 02:20:52;;;;;;;0.10;0.10;;;;;;;17.09;59.75;101578.06;5014500;28;20490;-86
2023/09/11 02:23:18;;;;;;;0.13;0.13;;;;;;;17.12;59.16;101580.53;5032616;28;20498;-86
2023/09/11 02:25:43;;;;;;;0.20;0.20;;;;;;;16.89;60.11;101574.06;5015093;28;20029;-86
2023/09/11 02:28:08;;;;;;;0.20;0.20;;;;;;;16.89;59.85;101549.69;5030952;28;20033;-87
2023/09/11 02:30:34;;;;;;;0.20;0.20;;;;;;;17.01;60.14;101587.31;5014988;28;20483;-86
2023/09/11 02:32:59;;;;;;;0.20;0.20;;;;;;;16.94;60.08;101588.63;4998768;28;20487;-87
2023/09/11 02:35:25;;;;;;;0.20;0.20;;;;;;;16.96;60.15;101582.38;5013818;28;20483;-86
2023/09/11 02:37:50;;;;;;;0.20;0.20;;;;;;;17.05;60.35;101588.81;5014503;28;20037;-86
2023/09/11 02:40:16;;;;;;;0.13;0.13;;;;;;;16.91;60.11;101577.44;5014121;28;20033;-86
2023/09/11 02:42:41;;;;;;;0.10;0.10;;;;;;;16.91;60.45;101584.41;4998155;28;20498;-85
2023/09/11 02:45:07;;;;;;;0.20;0.20;;;;;;;16.90;60.59;101580.97;5014967;28;20426;-86
2023/09/11 02:47:32;;;;;;;0.10;0.10;;;;;;;16.95;60.55;101588.53;5031170;28;20387;-87
2023/09/11 02:49:58;;;;;;;0.10;0.10;;;;;;;16.81;61.14;101589.38;5030566;28;20029;-87
2023/09/11 02:52:23;;;;;;;0.10;0.10;;;;;;;16.56;61.53;101563.81;5014993;28;20471;-86
2023/09/11 02:54:49;;;;;;;0.10;0.10;;;;;;;16.74;61.02;101569.78;5014429;28;20396;-86
2023/09/11 02:57:14;;;;;;;0.20;0.20;;;;;;;16.90;60.84;101594.03;5014189;28;20386;-86
2023/09/11 02:59:39;;;;;;;0.20;0.20;;;;;;;16.84;61.21;101597.03;5031176;28;20033;-87
2023/09/11 03:02:05;;;;;;;0.20;0.20;;;;;;;16.78;61.43;101584.31;5029694;28;20040;-87
2023/09/11 03:04:30;;;;;;;0.20;0.20;;;;;;;16.82;61.35;101590.22;5029538;28;20029;-88
2023/09/11 03:06:57;;;;;;;0.20;0.20;;;;;;;16.69;61.72;101591.88;5029830;28;20034;-88
2023/09/11 03:09:22;;;;;;;0.20;0.20;;;;;;;16.60;62.17;101583.59;5029389;28;20022;-87
2023/09/11 03:11:48;;;;;;;0.20;0.20;;;;;;;16.47;62.56;101582.66;5012912;28;20057;-87
2023/09/11 03:14:13;;;;;;;0.20;0.20;;;;;;;16.56;62.09;101584.72;5029417;28;20029;-87
2023/09/11 03:16:43;;;;;;;0.20;0.20;;;;;;;16.44;62.47;101575.00;5013305;28;20030;-87
2023/09/11 03:19:11;;;;;;;0.20;0.20;;;;;;;16.46;62.49;101586.19;5030518;28;20087;-89
2023/09/11 03:21:37;;;;;;;0.20;0.20;;;;;;;16.35;63.13;101591.19;5012827;28;20030;-88
2023/09/11 03:24:03;;;;;;;0.20;0.20;;;;;;;16.17;63.28;101559.16;5013159;28;20080;-87
2023/09/11 03:26:28;;;;;;;0.20;0.20;;;;;;;16.42;63.16;101599.50;5013151;28;20124;-88
2023/09/11 03:28:54;;;;;;;0.20;0.20;;;;;;;16.49;62.78;101596.44;5013082;28;20523;-87
2023/09/11 03:31:19;;;;;;;0.20;0.20;;;;;;;16.38;62.86;101572.72;5013611;28;20453;-88
2023/09/11 03:33:45;;;;;;;0.20;0.20;;;;;;;16.51;62.62;101583.28;5013213;28;20053;-87
2023/09/11 03:36:17;;;;;;;0.20;0.20;;;;;;;16.53;62.61;101587.53;5013206;28;20124;-88
2023/09/11 03:38:43;;;;;;;0.20;0.20;;;;;;;16.54;62.67;101593.59;5029686;28;20112;-88
2023/09/11 03:41:09;;;;;;;0.20;0.20;;;;;;;16.42;62.48;101589.06;5000201;28;20423;-86
2023/09/11 03:43:35;;;;;;;0.20;0.20;;;;;;;16.32;63.04;101589.63;5013861;28;20025;-88
2023/09/11 03:46:00;;;;;;;0.20;0.20;;;;;;;16.52;62.72;101595.47;4996727;28;20426;-87
2023/09/11 03:48:26;;;;;;;0.20;0.20;;;;;;;16.35;62.86;101589.44;5013262;28;20030;-85
2023/09/11 03:50:51;;;;;;;0.20;0.20;;;;;;;16.18;63.68;101591.31;5012425;28;20513;-87
2023/09/11 03:53:17;;;;;;;0.10;0.10;;;;;;;16.21;63.96;101602.41;5012279;28;20083;-85
2023/09/11 03:55:42;;;;;;;0.10;0.10;;;;;;;16.19;63.87;101599.06;5012484;28;20026;-85
2023/09/11 03:58:08;;;;;;;0.10;0.10;;;;;;;16.21;63.48;101583.31;5012820;28;20045;-85
2023/09/11 04:00:33;;;;;;;0.20;0.20;;;;;;;16.30;63.72;101614.94;5028845;28;20029;-87
2023/09/11 04:02:59;;;;;;;0.20;0.20;;;;;;;16.17;63.92;101608.75;5012091;28;20033;-86
2023/09/11 04:05:24;;;;;;;0.10;0.10;;;;;;;16.10;64.28;101599.59;5028974;28;20022;-86
2023/09/11 04:07:49;;;;;;;0.10;0.10;;;;;;;16.09;63.96;101586.63;5013120;28;20025;-88
2023/09/11 04:10:15;;;;;;;0.20;0.20;;;;;;;16.44;63.26;101606.34;5013761;28;20029;-89
2023/09/11 04:12:40;;;;;;;0.10;0.10;;;;;;;16.34;63.02;101573.84;5017621;28;20129;-88
2023/09/11 04:15:06;;;;;;;0.20;0.20;;;;;;;16.48;63.27;101594.78;5017182;28;20057;-90
2023/09/11 04:17:32;;;;;;;0.20;0.20;;;;;;;16.55;62.95;101605.72;5017111;28;20032;-89
2023/09/11 04:19:59;;;;;;;0.20;0.20;;;;;;;16.52;63.40;101601.53;5013765;28;20048;-89
2023/09/11 04:22:24;;;;;;;0.20;0.20;;;;;;;16.55;63.61;101597.88;5012749;28;20781;-89
2023/09/11 04:24:50;;;;;;;0.20;0.20;;;;;;;16.56;63.08;101592.56;5034202;28;20029;-92
2023/09/11 04:27:15;;;;;;;0.20;0.20;;;;;;;16.71;63.08;101601.28;5017492;28;20029;-92
2023/09/11 04:29:42;;;;;;;0.20;0.20;;;;;;;16.67;62.40;101586.69;5015607;28;20505;-88
2023/09/11 04:32:07;;;;;;;0.10;0.10;;;;;;;16.96;63.17;101610.28;5031675;28;20033;-88
2023/09/11 04:34:33;;;;;;;0.20;0.20;;;;;;;17.61;60.95;101621.13;5011868;28;20526;-89
2023/09/11 04:36:58;;;;;;;0.20;0.20;;;;;;;17.53;60.95;101618.13;5011963;28;20425;-91
2023/09/11 04:39:24;;;;;;;0.20;0.20;;;;;;;17.63;60.78;101627.09;5000190;28;20029;-92
2023/09/11 04:41:49;;;;;;;0.20;0.20;;;;;;;17.80;59.78;101624.28;4991361;28;20042;-90
2023/09/11 04:44:14;;;;;;;0.20;0.20;;;;;;;17.97;59.62;101621.41;5031578;28;20022;-90
2023/09/11 04:46:40;;;;;;;0.20;0.20;;;;;;;17.87;59.18;101630.78;5031753;28;20475;-92
2023/09/11 04:49:05;;;;;;;0.20;0.20;;;;;;;17.58;59.25;101598.56;5015252;28;20550;-85
2023/09/11 04:51:34;;;;;;;0.20;0.20;;;;;;;17.55;59.82;101624.94;5015336;28;20029;-92
2023/09/11 04:53:59;;;;;;;0.20;0.20;;;;;;;17.30;60.49;101625.59;5017080;28;20092;-91
2023/09/11 04:56:25;;;;;;;0.20;0.20;;;;;;;17.12;61.14;101627.59;5018446;28;20453;-90
2023/09/11 04:58:50;;;;;;;0.10;0.10;;;;;;;16.77;61.80;101616.59;5015424;28;20036;-87
2023/09/11 05:01:16;;;;;;;0.20;0.20;;;;;;;16.75;62.59;101634.16;5013511;28;20026;-86
2023/09/11 05:03:41;;;;;;;0.20;0.20;;;;;;;16.61;63.21;101628.84;5011762;28;20026;-86
2023/09/11 05:06:07;;;;;;;0.20;0.20;;;;;;;16.57;63.42;101636.03;4996446;28;20054;-85
2023/09/11 05:08:32;;;;;;;0.20;0.20;;;;;;;16.61;64.15;101631.47;5033872;28;20103;-85
2023/09/11 05:11:00;;;;;;;0.20;0.20;;;;;;;16.63;64.21;101640.06;5033422;28;20029;-89
2023/09/11 05:13:26;;;;;;;0.20;0.20;;;;;;;16.63;63.47;101617.41;5030639;28;20128;-86
2023/09/11 05:15:51;;;;;;;0.10;0.10;;;;;;;16.81;64.43;101639.03;5026818;28;20519;-88
2023/09/11 05:18:17;;;;;;;0.20;0.20;;;;;;;16.75;63.53;101628.94;5011201;28;20504;-88
2023/09/11 05:20:44;;;;;;;0.20;0.20;;;;;;;16.86;64.67;101626.53;5014562;28;20384;-89
2023/09/11 05:23:10;;;;;;;0.20;0.20;;;;;;;16.93;62.25;101627.00;5004612;28;20026;-86
2023/09/11 05:25:36;;;;;;;0.20;0.20;;;;;;;17.08;62.17;101626.06;5016123;28;20048;-87
2023/09/11 05:28:02;;;;;;;0.20;0.20;;;;;;;17.24;62.83;101646.06;5028261;28;20063;-90
2023/09/11 05:30:27;;;;;;;0.20;0.20;;;;;;;17.30;62.24;101636.06;5029859;28;20112;-90
2023/09/11 05:32:53;;;;;;;0.20;0.20;;;;;;;17.45;62.79;101632.53;5030626;28;20479;-89
2023/09/11 05:35:21;;;;;;;0.10;0.10;;;;;;;17.54;62.48;101636.34;5015569;28;20408;-91
2023/09/11 05:37:47;;;;;;;0.20;0.20;;;;;;;17.50;63.57;101621.75;5018215;28;20034;-90
2023/09/11 05:40:12;;;;;;;0.20;0.20;;;;;;;17.86;61.33;101638.75;5008271;28;20164;-91
2023/09/11 05:42:38;;;;;;;0.20;0.20;;;;;;;17.89;60.00;101639.38;5003198;28;20053;-92
2023/09/11 05:45:04;;;;;;;0.20;0.20;;;;;;;17.98;60.19;101636.19;5005508;28;20026;-90
2023/09/11 05:47:29;;;;;;;0.20;0.20;;;;;;;18.00;60.22;101638.72;5013955;28;20037;-89
2023/09/11 05:50:00;;;;;;;0.20;0.20;;;;;;;17.90;60.21;101627.16;5014120;28;20022;-87
2023/09/11 05:52:26;;;;;;;0.20;0.20;;;;;;;18.00;60.55;101636.94;5015302;28;20041;-92
2023/09/11 05:54:52;;;;;;;0.20;0.20;;;;;;;18.32;59.99;101629.63;5014604;28;20475;-86
2023/09/11 05:57:17;;;;;;;0.20;0.20;;;;;;;18.40;58.44;101623.88;5030375;28;20112;-88
2023/09/11 05:59:43;;;;;;;0.20;0.20;;;;;;;18.48;58.69;101621.56;5027375;28;20500;-87
2023/09/11 06:02:08;;;;;;;0.20;0.20;;;;;;;19.23;58.90;101624.38;5022985;28;20480;-92
2023/09/11 06:04:34;;;;;;;0.10;0.10;;;;;;;19.53;55.96;101626.63;5014957;28;20462;-93
2023/09/11 06:06:59;;;;;;;0.20;0.20;;;;;;;19.42;55.94;101639.69;5014531;28;20099;-93
2023/09/11 06:09:24;;;;;;;0.20;0.20;;;;;;;19.33;56.52;101640.31;5017096;28;20023;-92
2023/09/11 06:11:52;;;;;;;0.20;0.20;;;;;;;19.27;54.92;101632.88;5016705;28;20037;-92
2023/09/11 06:14:17;;;;;;;0.20;0.20;;;;;;;19.30;55.42;101651.03;4999592;28;20471;-94
2023/09/11 06:16:43;;;;;;;0.10;0.10;;;;;;;19.30;55.43;101649.25;5015145;28;20036;-89
2023/09/11 06:19:08;;;;;;;0.20;0.20;;;;;;;19.24;54.21;101648.81;5028034;28;20038;-91
2023/09/11 06:21:34;;;;;;;0.20;0.20;;;;;;;19.28;54.11;101647.69;5006463;28;20037;-92
2023/09/11 06:23:59;;;;;;;0.20;0.20;;;;;;;19.31;55.77;101645.69;5031441;28;20044;-85
2023/09/11 06:26:24;;;;;;;0.20;0.20;;;;;;;19.41;54.22;101653.75;5017177;28;20037;-91
2023/09/11 06:28:50;;;;;;;0.20;0.20;;;;;;;19.33;54.37;101648.19;4992477;28;20553;-88
2023/09/11 06:31:16;;;;;;;0.20;0.20;;;;;;;19.62;54.60;101652.28;5013954;28;20037;-93
2023/09/11 06:33:43;;;;;;;0.20;0.20;;;;;;;19.61;51.86;101629.59;5015939;28;20060;-94
2023/09/11 06:36:09;;;;;;;0.20;0.20;;;;;;;19.80;51.94;101649.28;5032322;28;20045;-93
2023/09/11 06:38:35;;;;;;;0.20;0.20;;;;;;;19.83;52.81;101651.69;4995886;28;20105;-92
2023/09/11 06:41:11;;;;;;;0.20;0.20;;;;;;;20.02;51.57;101660.75;5014806;28;20415;-91
2023/09/11 06:43:37;;;;;;;0.20;0.20;;;;;;;20.16;53.44;101659.78;5026413;28;20041;-90
2023/09/11 06:46:03;;;;;;;0.20;0.20;;;;;;;20.22;52.51;101656.69;5013521;28;20071;-93
2023/09/11 06:48:28;;;;;;;0.10;0.10;;;;;;;20.22;50.49;101656.69;5022079;28;20034;-86
2023/09/11 06:50:54;;;;;;;0.20;0.20;;;;;;;20.05;50.87;101634.25;4997493;28;20037;-88
2023/09/11 06:53:20;;;;;;;0.15;0.15;;;;;;;19.95;50.27;101629.78;5012574;28;20076;-86
2023/09/11 06:55:48;;;;;;;0.10;0.10;;;;;;;20.10;51.23;101639.19;5012418;28;20040;-85
2023/09/11 06:58:14;;;;;;;0.20;0.20;;;;;;;20.16;52.04;101645.81;5009128;28;20116;-92
2023/09/11 07:00:40;;;;;;;0.20;0.20;;;;;;;20.45;51.54;101651.53;5012520;28;20064;-92
2023/09/11 07:03:05;;;;;;;0.20;0.20;;;;;;;20.37;50.06;101638.13;5014055;28;20083;-90
2023/09/11 07:05:31;;;;;;;0.20;0.20;;;;;;;20.18;50.32;101644.72;5012523;28;20061;-88
2023/09/11 07:07:57;;;;;;;0.20;0.20;;;;;;;20.15;50.38;101650.19;5030707;28;20124;-93
2023/09/11 07:10:24;;;;;;;0.20;0.20;;;;;;;20.17;49.96;101642.22;5015023;28;20025;-92
2023/09/11 07:12:50;;;;;;;0.20;0.20;;;;;;;21.08;52.36;101613.44;5026327;28;20477;-91
2023/09/11 07:15:17;;;;;;;0.20;0.20;;;;;;;21.47;48.15;101631.41;4998283;28;20096;-89
2023/09/11 07:17:44;;;;;;;0.10;0.10;;;;;;;21.20;47.19;101644.06;5009914;28;20068;-88
2023/09/11 07:20:12;;;;;;;0.10;0.10;;;;;;;21.26;49.04;101641.00;5026326;28;20032;-90
2023/09/11 07:22:38;;;;;;;0.20;0.20;;;;;;;21.21;48.61;101640.47;5033967;28;20040;-87
2023/09/11 07:25:04;;;;;;;0.20;0.20;;;;;;;20.91;47.34;101622.63;5027477;28;20038;-92
2023/09/11 07:27:35;;;;;;;0.20;0.20;;;;;;;21.50;49.05;101640.84;5010080;28;20066;-91
2023/09/11 07:30:03;;;;;;;0.20;0.20;;;;;;;21.96;49.81;101638.03;5020733;28;20037;-92
2023/09/11 07:32:30;;;;;;;0.20;0.20;;;;;;;22.18;49.07;101649.47;5009207;28;20033;-90
2023/09/11 07:34:58;;;;;;;0.20;0.20;;;;;;;22.19;45.98;101623.00;5012530;28;20124;-89
2023/09/11 07:37:24;;;;;;;0.10;0.10;;;;;;;22.24;44.83;101641.09;5008936;28;20583;-92
2023/09/11 07:39:50;;;;;;;0.20;0.20;;;;;;;22.02;44.79;101637.53;5029315;28;20037;-89
2023/09/11 07:42:16;;;;;;;0.20;0.20;;;;;;;21.76;45.81;101613.28;5000240;28;20046;-90
2023/09/11 07:44:42;;;;;;;0.20;0.20;;;;;;;22.17;45.57;101635.47;5010817;28;20036;-89
2023/09/11 07:47:08;;;;;;;0.20;0.20;;;;;;;22.24;45.26;101634.00;4996158;28;20029;-87
2023/09/11 07:49:34;;;;;;;0.10;0.10;;;;;;;22.42;46.54;101634.31;5028152;28;20040;-93
2023/09/11 07:52:00;;;;;;;0.20;0.20;;;;;;;22.63;45.79;101641.38;4986852;28;20406;-88
2023/09/11 07:54:26;;;;;;;0.20;0.20;;;;;;;23.14;44.93;101634.34;5029231;28;20034;-90
2023/09/11 07:56:54;;;;;;;0.20;0.20;;;;;;;22.81;42.56;101629.25;5028342;28;20037;-90
2023/09/11 07:59:20;;;;;;;0.20;0.20;;;;;;;22.55;43.11;101632.31;5035926;28;20029;-91
2023/09/11 08:01:46;;;;;;;0.20;0.20;;;;;;;22.54;42.69;101624.53;5035769;28;20029;-88
2023/09/11 08:04:12;;;;;;;0.20;0.20;;;;;;;22.42;44.01;101621.13;5030254;28;20056;-89
2023/09/11 08:06:37;;;;;;;0.10;0.10;;;;;;;22.52;43.81;101615.91;5013556;28;20479;-87
2023/09/11 08:09:06;;;;;;;0.20;0.20;;;;;;;22.84;46.31;101627.25;4996490;28;20056;-89
2023/09/11 08:11:34;;;;;;;0.20;0.20;;;;;;;23.10;42.48;101619.72;5029711;28;20117;-91
2023/09/11 08:14:00;;;;;;;0.20;0.20;;;;;;;23.06;41.02;101623.59;5027373;28;20415;-89
2023/09/11 08:16:26;;;;;;;0.20;0.20;;;;;;;22.95;43.25;101589.38;5032510;28;20036;-94
2023/09/11 08:18:52;;;;;;;0.20;0.20;;;;;;;23.21;41.52;101621.47;5016990;28;20048;-89
2023/09/11 08:21:19;;;;;;;0.20;0.20;;;;;;;23.30;42.59;101609.22;5020196;28;20029;-91
2023/09/11 08:23:44;;;;;;;0.10;0.10;;;;;;;23.31;40.63;101621.50;5016900;28;20029;-91
2023/09/11 08:26:10;;;;;;;0.10;0.10;;;;;;;23.41;41.90;101610.00;5024557;28;20041;-90
2023/09/11 08:28:38;;;;;;;0.20;0.20;;;;;;;23.56;42.83;101612.25;5012887;28;20189;-85
2023/09/11 08:31:03;;;;;;;0.20;0.20;;;;;;;23.71;42.07;101614.41;5015640;28;20170;-89
2023/09/11 08:33:29;;;;;;;0.20;0.20;;;;;;;23.86;41.53;101606.06;5033520;28;20040;-91
2023/09/11 08:35:54;;;;;;;0.20;0.20;;;;;;;24.00;41.02;101584.53;5021682;28;20433;-90
2023/09/11 08:38:20;;;;;;;0.20;0.20;;;;;;;24.24;42.28;101598.16;5029871;28;20029;-89
2023/09/11 08:40:45;;;;;;;0.20;0.20;;;;;;;24.39;41.10;101581.91;5016666;28;20466;-90
2023/09/11 08:43:11;;;;;;;0.20;0.20;;;;;;;24.43;39.76;101572.69;5027583;28;20083;-88
2023/09/11 08:45:37;;;;;;;0.20;0.20;;;;;;;24.72;41.64;101597.28;5014715;28;20510;-90
2023/09/11 08:48:06;;;;;;;0.10;0.10;;;;;;;24.97;38.59;101597.59;5031896;28;20029;-91
2023/09/11 08:50:32;;;;;;;0.20;0.20;;;;;;;25.12;40.51;101590.88;5012962;28;20022;-94
2023/09/11 08:53:01;;;;;;;0.20;0.20;;;;;;;25.09;36.22;101589.38;5019636;28;20099;-91
2023/09/11 08:55:32;;;;;;;0.20;0.20;;;;;;;24.98;37.69;101589.53;5026630;28;20034;-91
2023/09/11 08:58:00;;;;;;;0.20;0.20;;;;;;;25.06;37.68;101575.56;5021347;28;20028;-95
2023/09/11 09:00:27;;;;;;;0.20;0.20;;;;;;;25.22;37.32;101580.25;5032089;28;20043;-94
2023/09/11 09:02:53;;;;;;;0.13;0.13;;;;;;;25.37;40.22;101582.28;4999021;28;20037;-89
2023/09/11 09:05:19;;;;;;;0.20;0.20;;;;;;;25.44;37.32;101569.25;5027465;28;20025;-88
2023/09/11 09:07:46;;;;;;;0.13;0.13;;;;;;;25.50;36.62;101576.59;5034738;28;20048;-90
2023/09/11 09:10:12;;;;;;;0.20;0.20;;;;;;;25.56;37.26;101580.47;5015130;28;20036;-94
2023/09/11 09:12:37;;;;;;;0.20;0.20;;;;;;;25.64;36.25;101565.47;4999461;28;20037;-88
2023/09/11 09:15:03;;;;;;;0.20;0.20;;;;;;;25.77;38.22;101570.47;5013369;28;20053;-91
2023/09/11 09:17:29;;;;;;;0.20;0.20;;;;;;;25.90;35.88;101548.88;5029013;28;20030;-93
2023/09/11 09:19:54;;;;;;;0.20;0.20;;;;;;;26.05;34.94;101567.69;5011314;28;20026;-90
2023/09/11 09:22:20;;;;;;;0.20;0.20;;;;;;;26.09;34.91;101564.63;5018966;28;20502;-95
2023/09/11 09:24:51;;;;;;;0.20;0.20;;;;;;;26.07;36.89;101555.97;5030867;28;20048;-91
2023/09/11 09:27:17;;;;;;;0.20;0.20;;;;;;;26.16;35.92;101551.59;5001313;28;20029;-95
2023/09/11 09:29:43;;;;;;;0.20;0.20;;;;;;;26.38;34.72;101539.66;5018111;28;20059;-95
2023/09/11 09:32:09;;;;;;;0.20;0.20;;;;;;;26.29;34.49;101538.75;5015077;28;20034;-89
2023/09/11 09:34:35;;;;;;;0.10;0.10;;;;;;;26.37;34.17;101552.09;5042374;28;20484;-91
2023/09/11 09:37:03;;;;;;;0.20;0.20;;;;;;;26.45;34.53;101546.84;5005158;28;20026;-94
2023/09/11 09:39:33;;;;;;;0.20;0.20;;;;;;;26.60;35.40;101544.44;5035188;28;20108;-91
2023/09/11 09:42:01;;;;;;;0.20;0.20;;;;;;;26.59;37.97;101524.19;5004441;28;20061;-94
2023/09/11 09:44:33;;;;;;;0.20;0.20;;;;;;;26.97;35.91;101541.47;5000566;28;20093;-89
2023/09/11 09:47:13;;;;;;;0.20;0.20;;;;;;;27.19;32.44;101537.41;5031905;28;20065;-91
2023/09/11 09:49:52;;;;;;;0.20;0.20;;;;;;;27.37;32.79;101532.81;5016978;28;20037;-88
2023/09/11 09:52:19;;;;;;;0.20;0.20;;;;;;;27.42;35.27;101525.19;5013900;28;20025;-94
2023/09/11 09:54:49;;;;;;;0.20;0.20;;;;;;;27.55;33.29;101522.06;5015282;28;20025;-90
2023/09/11 09:57:18;;;;;;;0.20;0.20;;;;;;;27.67;32.17;101526.09;5011994;28;20030;-88
2023/09/11 10:00:05;;;;;;;0.20;0.20;;;;;;;27.74;31.73;101517.47;5010880;28;20109;-89
2023/09/11 10:02:31;;;;;;;0.20;0.20;;;;;;;27.69;32.39;101524.09;5013372;28;20076;-92
2023/09/11 10:05:01;;;;;;;0.20;0.20;;;;;;;27.91;32.26;101501.31;5038939;28;20032;-87
2023/09/11 10:07:38;;;;;;;0.20;0.20;;;;;;;28.08;32.09;101507.47;5028751;28;20029;-86
2023/09/11 10:10:28;;;;;;;0.20;0.20;;;;;;;28.13;32.03;101505.16;5028890;28;20029;-94
2023/09/11 10:13:03;;;;;;;0.20;0.20;;;;;;;28.14;31.42;101500.66;5015126;28;20412;-89
2023/09/11 10:15:29;;;;;;;0.20;0.20;;;;;;;28.13;31.52;101493.69;5020357;28;20057;-90
2023/09/11 10:17:54;;;;;;;0.20;0.20;;;;;;;28.19;30.64;101496.47;5030409;28;20033;-94
2023/09/11 10:20:21;;;;;;;0.20;0.20;;;;;;;28.24;31.60;101486.16;5028636;28;20067;-93
2023/09/11 10:22:46;;;;;;;0.20;0.20;;;;;;;28.11;31.86;101491.16;5005100;28;20029;-87
2023/09/11 10:25:12;;;;;;;0.20;0.20;;;;;;;28.38;30.54;101486.50;5030305;28;20581;-85
2023/09/11 10:27:37;;;;;;;0.20;0.20;;;;;;;28.50;29.90;101485.94;4996703;28;20028;-92
2023/09/11 10:30:04;;;;;;;0.20;0.20;;;;;;;28.77;30.18;101482.03;5017225;28;20037;-91
2023/09/11 10:32:36;;;;;;;0.20;0.20;;;;;;;28.83;29.63;101477.84;5009775;28;20033;-94
2023/09/11 10:35:01;;;;;;;0.20;0.20;;;;;;;28.72;29.46;101457.75;4994445;28;20036;-87
2023/09/11 10:37:27;;;;;;;0.20;0.20;;;;;;;28.91;29.78;101466.34;5001740;28;20442;-87
2023/09/11 10:39:52;;;;;;;0.20;0.20;;;;;;;28.98;29.23;101461.97;5013048;28;20029;-88
2023/09/11 10:42:18;;;;;;;0.20;0.20;;;;;;;29.01;29.48;101445.66;5012711;28;20053;-89
2023/09/11 10:44:43;;;;;;;0.20;0.20;;;;;;;29.14;30.36;101461.88;5012544;28;20072;-94
2023/09/11 10:47:11;;;;;;;0.20;0.20;;;;;;;29.32;29.73;101457.09;5032120;28;20080;-89
2023/09/11 10:49:37;;;;;;;0.20;0.20;;;;;;;29.47;29.24;101441.16;5012875;28;20034;-84
2023/09/11 10:52:07;;;;;;;0.20;0.20;;;;;;;29.71;28.17;101448.16;5029191;28;20036;-92
2023/09/11 10:54:32;;;;;;;0.20;0.20;;;;;;;29.74;28.30;101441.63;5033485;28;20037;-95
2023/09/11 10:56:58;;;;;;;0.20;0.20;;;;;;;29.80;29.49;101444.41;5033167;28;20060;-88
2023/09/11 10:59:24;;;;;;;0.20;0.20;;;;;;;30.01;28.33;101442.88;5029012;28;20149;-93
2023/09/11 11:01:50;;;;;;;0.20;0.20;;;;;;;30.05;27.74;101431.63;5011628;28;20061;-92
2023/09/11 11:04:16;;;;;;;0.20;0.20;;;;;;;30.08;28.26;101419.78;5013705;28;20033;-86
2023/09/11 11:06:49;;;;;;;0.20;0.20;;;;;;;30.19;27.76;101422.03;4992575;28;20494;-85
2023/09/11 11:09:25;;;;;;;0.20;0.20;;;;;;;30.44;27.00;101423.38;5008195;28;20502;-82
2023/09/11 11:11:50;;;;;;;0.20;0.20;;;;;;;30.46;27.35;101415.19;5027429;28;20509;-86
2023/09/11 11:14:17;;;;;;;0.20;0.20;;;;;;;30.58;26.58;101423.53;5011703;28;20053;-90
2023/09/11 11:16:56;;;;;;;0.20;0.20;;;;;;;30.54;26.99;101417.75;5016128;28;20553;-87
2023/09/11 11:19:26;;;;;;;0.20;0.20;;;;;;;30.43;27.00;101419.06;5028423;28;20026;-81
2023/09/11 11:21:51;;;;;;;0.20;0.20;;;;;;;30.51;26.95;101413.63;5029879;28;20080;-83